Glabbeek-Zuurbemde, Belgium
Current Conditions -  °F | °C
As of 3:25 PM on Monday 26 Jan 2015 (Local Time) from EBDT Reporting Station
Light Rain Light Rain  
Wind Chill: 42°   Ceiling: 600
Heat Index: 46°   Visibility: 1.2mi
Dew Point: 46°   Wind: 9mph
Humidity: 100%   Direction: 300°WNW
Pressure: 30.06"   Gusts: NA
Location:  50.87°N, 4.94°E
Report Text: EBDT 261425Z 30008KT 2000 -RADZ FEW003 SCT004 BKN006 08/08 Q1018 BLACKYLO YLO BECMG GRN
Loading
Personal Weather Stations






























Interactive Weather Map New forecast layout! Learn more

10-Day Weather Forecast

Advertisements
Track Severe Weather on mobile